createdAt,value
2022-12-08T00:01:27.463Z,34.90
2022-12-08T00:03:55.566Z,40.20
2022-12-08T00:06:54.312Z,32.25
2022-12-08T00:09:32.023Z,38.13
2022-12-08T00:12:08.643Z,32.67
2022-12-08T00:14:44.453Z,33.67
2022-12-08T00:17:13.537Z,34.03
2022-12-08T00:19:41.819Z,33.15
2022-12-08T00:22:10.744Z,32.35
2022-12-08T00:24:40.578Z,34.15
2022-12-08T00:27:09.283Z,30.20
2022-12-08T00:29:37.090Z,29.80
2022-12-08T00:32:05.088Z,31.42
2022-12-08T00:34:33.103Z,35.92
2022-12-08T00:37:00.518Z,34.15
2022-12-08T00:39:27.635Z,32.95
2022-12-08T00:42:12.879Z,33.22
2022-12-08T00:44:44.240Z,30.73
2022-12-08T00:47:11.955Z,28.90
2022-12-08T00:49:39.033Z,28.08
2022-12-08T00:52:06.506Z,29.17
2022-12-08T00:54:33.776Z,27.45
2022-12-08T00:57:00.823Z,27.48
2022-12-08T00:59:27.802Z,27.60
2022-12-08T01:01:54.834Z,29.13
2022-12-08T01:04:22.012Z,31.33
2022-12-08T01:06:49.833Z,28.95
2022-12-08T01:09:18.150Z,28.38
2022-12-08T01:11:45.655Z,26.65
2022-12-08T01:14:13.678Z,28.60
2022-12-08T01:16:44.070Z,27.17
2022-12-08T01:19:15.938Z,29.85
2022-12-08T01:21:43.942Z,30.25
2022-12-08T01:24:12.904Z,30.38
2022-12-08T01:26:40.476Z,28.88
2022-12-08T01:29:07.957Z,27.27
2022-12-08T01:31:35.178Z,28.95
2022-12-08T01:34:02.478Z,30.08
2022-12-08T01:36:31.804Z,29.90
2022-12-08T01:39:00.893Z,29.42
2022-12-08T01:41:33.422Z,28.13
2022-12-08T01:44:04.254Z,33.72
2022-12-08T01:46:33.589Z,33.40
2022-12-08T01:49:09.269Z,35.17
2022-12-08T01:51:42.788Z,34.53
2022-12-08T01:54:11.943Z,36.30
2022-12-08T01:57:01.162Z,36.58
2022-12-08T01:59:30.826Z,35.28
2022-12-08T02:01:58.454Z,35.85
2022-12-08T02:04:25.651Z,37.30
2022-12-08T02:06:53.828Z,35.78
2022-12-08T02:09:22.076Z,36.53
2022-12-08T02:11:50.620Z,37.63
2022-12-08T02:14:17.773Z,38.95
2022-12-08T02:17:14.793Z,39.40
2022-12-08T02:20:19.475Z,37.08
2022-12-08T02:22:57.297Z,41.08
2022-12-08T02:25:33.420Z,39.17
2022-12-08T02:28:38.102Z,41.00
2022-12-08T02:31:56.149Z,35.83
2022-12-08T02:34:47.662Z,37.72
2022-12-08T02:37:26.847Z,37.15
2022-12-08T02:40:22.343Z,36.88
2022-12-08T02:42:57.893Z,35.72
2022-12-08T02:45:39.221Z,36.80
2022-12-08T02:48:09.419Z,37.78
2022-12-08T02:50:36.513Z,36.67
2022-12-08T02:55:50.202Z,37.08
2022-12-08T02:58:29.134Z,39.88
2022-12-08T03:01:17.884Z,37.75
2022-12-08T03:03:47.923Z,37.17
2022-12-08T03:06:33.565Z,36.05
2022-12-08T03:09:21.843Z,36.38
2022-12-08T03:12:20.304Z,36.45
2022-12-08T03:14:53.923Z,35.70
2022-12-08T03:19:50.319Z,38.88
2022-12-08T03:22:22.351Z,38.05
2022-12-08T03:24:50.160Z,37.95
2022-12-08T03:27:21.831Z,35.80
2022-12-08T03:29:51.051Z,35.97
2022-12-08T03:32:29.436Z,36.17
2022-12-08T03:34:59.325Z,36.20
2022-12-08T03:37:28.295Z,37.05
2022-12-08T03:39:55.739Z,36.75
2022-12-08T03:42:22.898Z,37.88
2022-12-08T03:44:49.916Z,42.67
2022-12-08T03:47:16.980Z,41.03
2022-12-08T03:49:43.934Z,42.78
2022-12-08T03:52:10.901Z,44.55
2022-12-08T03:54:37.961Z,46.30
2022-12-08T03:57:05.003Z,48.13
2022-12-08T03:59:32.041Z,47.53
2022-12-08T04:01:59.032Z,51.05
2022-12-08T04:04:26.110Z,45.05
2022-12-08T04:06:53.058Z,44.28
2022-12-08T04:09:20.147Z,48.78
2022-12-08T04:11:47.106Z,43.63
2022-12-08T04:14:14.185Z,47.42
2022-12-08T04:16:41.359Z,47.47
2022-12-08T04:19:08.491Z,47.97
2022-12-08T04:21:37.142Z,49.42
2022-12-08T04:24:04.297Z,48.67
2022-12-08T04:26:31.368Z,48.20
2022-12-08T04:28:58.321Z,50.38
2022-12-08T04:31:25.450Z,51.60
2022-12-08T04:33:52.429Z,50.45
2022-12-08T04:36:19.451Z,53.75
2022-12-08T04:38:46.386Z,59.72
2022-12-08T04:41:13.467Z,48.72
2022-12-08T04:43:41.493Z,54.65
2022-12-08T04:46:09.463Z,56.88
2022-12-08T04:48:41.310Z,53.92
2022-12-08T04:51:15.916Z,52.35
2022-12-08T04:53:46.743Z,49.22
2022-12-08T04:56:15.949Z,50.03
2022-12-08T04:58:43.224Z,55.03
2022-12-08T05:01:10.647Z,55.88
2022-12-08T05:03:37.983Z,53.58
2022-12-08T05:06:05.508Z,54.88
2022-12-08T05:08:32.898Z,55.75
2022-12-08T05:11:05.667Z,60.17
2022-12-08T05:13:33.147Z,56.53
2022-12-08T05:16:13.137Z,51.03
2022-12-08T05:18:42.062Z,49.47
2022-12-08T05:21:09.892Z,44.42
2022-12-08T05:23:37.014Z,47.05
2022-12-08T05:26:04.047Z,47.97
2022-12-08T05:28:46.352Z,49.58
2022-12-08T05:31:15.404Z,45.05
2022-12-08T05:33:43.164Z,47.72
2022-12-08T05:36:12.926Z,43.53
2022-12-08T05:38:40.759Z,47.38
2022-12-08T05:41:09.069Z,44.58
2022-12-08T05:43:36.334Z,45.90
2022-12-08T05:46:03.688Z,45.75
2022-12-08T05:48:30.852Z,45.17
2022-12-08T05:50:58.113Z,45.28
2022-12-08T05:53:25.261Z,50.03
2022-12-08T05:55:52.255Z,64.90
2022-12-08T05:58:22.564Z,52.75
2022-12-08T06:00:50.843Z,54.80
2022-12-08T06:03:19.942Z,50.90
2022-12-08T06:05:47.983Z,47.80
2022-12-08T06:08:15.445Z,48.42
2022-12-08T06:10:44.079Z,52.88
2022-12-08T06:13:11.437Z,47.72
2022-12-08T06:15:39.265Z,50.33
2022-12-08T06:18:07.126Z,46.45
2022-12-08T06:20:34.880Z,44.72
2022-12-08T06:23:02.361Z,51.28
2022-12-08T06:25:29.401Z,51.75
2022-12-08T06:27:56.399Z,64.78
2022-12-08T06:30:23.542Z,62.95
2022-12-08T06:32:50.601Z,57.60
2022-12-08T06:35:17.661Z,59.92
2022-12-08T06:37:44.719Z,54.58
2022-12-08T06:40:12.399Z,50.90
2022-12-08T06:42:45.472Z,48.17
2022-12-08T06:45:14.915Z,51.90
2022-12-08T06:47:42.219Z,53.65
2022-12-08T06:50:11.434Z,46.63
2022-12-08T06:52:47.268Z,45.92
2022-12-08T06:55:42.532Z,45.22
2022-12-08T06:58:07.426Z,48.75
2022-12-08T07:00:34.441Z,55.90
2022-12-08T07:03:01.514Z,52.20
2022-12-08T07:05:28.535Z,57.95
2022-12-08T07:07:56.044Z,60.03
2022-12-08T07:10:23.020Z,63.05
2022-12-08T07:12:50.133Z,58.13
2022-12-08T07:15:17.167Z,55.72
2022-12-08T07:17:44.376Z,59.58
2022-12-08T07:20:11.686Z,53.47
2022-12-08T07:22:38.626Z,59.45
2022-12-08T07:25:06.284Z,51.00
2022-12-08T07:27:33.307Z,50.42
2022-12-08T07:30:00.252Z,48.22
2022-12-08T07:32:27.386Z,49.88
2022-12-08T07:34:54.350Z,45.92
2022-12-08T07:37:21.289Z,45.08
2022-12-08T07:39:48.513Z,45.72
2022-12-08T07:42:15.460Z,53.13
2022-12-08T07:44:46.759Z,54.28
2022-12-08T07:47:14.002Z,61.38
2022-12-08T07:49:41.049Z,63.58
2022-12-08T07:52:08.028Z,60.92
2022-12-08T07:54:35.030Z,64.88
2022-12-08T07:57:03.882Z,64.07
2022-12-08T07:59:30.838Z,57.80
2022-12-08T08:02:21.292Z,62.55
2022-12-08T08:04:45.145Z,58.25
2022-12-08T08:07:12.617Z,60.75
2022-12-08T08:09:39.822Z,58.10
2022-12-08T08:12:30.360Z,51.60
2022-12-08T08:14:53.884Z,47.47
2022-12-08T08:17:21.106Z,43.83
2022-12-08T08:19:48.275Z,43.55
2022-12-08T08:22:15.212Z,40.42
2022-12-08T08:24:45.083Z,40.28
2022-12-08T08:27:12.721Z,38.05
2022-12-08T08:29:39.750Z,38.20
2022-12-08T08:32:06.745Z,37.35
2022-12-08T08:34:33.790Z,39.55
2022-12-08T08:37:00.909Z,43.25
2022-12-08T08:39:28.038Z,39.85
2022-12-08T08:41:54.990Z,38.65
2022-12-08T08:44:22.080Z,43.47
2022-12-08T08:46:49.211Z,45.30
2022-12-08T08:49:16.287Z,38.03
2022-12-08T08:51:44.016Z,41.80
2022-12-08T08:54:11.607Z,37.88
2022-12-08T08:56:38.596Z,38.95
2022-12-08T08:59:05.701Z,35.35
2022-12-08T09:01:32.924Z,36.88
2022-12-08T09:04:00.096Z,34.47
2022-12-08T09:06:28.562Z,31.65
2022-12-08T09:08:56.045Z,29.27
2022-12-08T09:11:26.052Z,27.95
2022-12-08T09:13:54.904Z,33.65
2022-12-08T09:16:22.928Z,28.55
2022-12-08T09:18:50.812Z,25.88
2022-12-08T09:21:22.925Z,31.50
2022-12-08T09:23:58.096Z,23.75
2022-12-08T09:26:26.739Z,23.05
2022-12-08T09:28:55.331Z,20.42
2022-12-08T09:31:23.977Z,18.83
2022-12-08T09:33:54.352Z,18.55
2022-12-08T09:36:21.615Z,20.88
2022-12-08T09:38:49.409Z,17.52
2022-12-08T09:41:40.320Z,18.70
2022-12-08T09:44:36.677Z,16.45
2022-12-08T09:47:13.543Z,19.98
2022-12-08T09:49:47.345Z,17.70
2022-12-08T09:52:25.316Z,17.38
2022-12-08T09:54:52.669Z,17.35
2022-12-08T09:57:24.656Z,19.67
2022-12-08T10:00:06.264Z,20.67
2022-12-08T10:02:33.792Z,16.02
2022-12-08T10:05:00.968Z,16.10
2022-12-08T10:07:32.473Z,18.30
2022-12-08T10:10:16.039Z,18.27
2022-12-08T10:13:19.918Z,16.40
2022-12-08T10:16:10.489Z,15.25
2022-12-08T10:18:40.779Z,14.95
2022-12-08T10:21:20.744Z,13.23
2022-12-08T10:23:55.738Z,15.10
2022-12-08T10:26:23.064Z,14.57
2022-12-08T10:28:50.730Z,16.60
2022-12-08T10:31:20.627Z,11.68
2022-12-08T10:33:51.479Z,14.82
2022-12-08T10:36:18.580Z,12.48
2022-12-08T10:38:45.649Z,15.75
2022-12-08T10:41:12.734Z,12.27
2022-12-08T10:44:03.080Z,14.23
2022-12-08T10:46:30.471Z,13.50
2022-12-08T10:49:06.460Z,12.13
2022-12-08T10:51:33.352Z,13.10
2022-12-08T10:54:01.046Z,17.10
2022-12-08T10:56:30.596Z,14.48
2022-12-08T10:59:17.589Z,19.30
2022-12-08T11:01:53.297Z,16.02
2022-12-08T11:04:24.293Z,17.15
2022-12-08T11:06:52.819Z,18.13
2022-12-08T11:09:19.812Z,19.42
2022-12-08T11:11:53.994Z,18.45
2022-12-08T11:14:26.820Z,19.13
2022-12-08T11:17:05.825Z,16.58
2022-12-08T11:19:37.984Z,13.95
2022-12-08T11:22:35.788Z,14.25
2022-12-08T11:25:08.641Z,13.50
2022-12-08T11:27:38.023Z,16.05
2022-12-08T11:30:17.444Z,13.77
2022-12-08T11:32:49.998Z,14.57
2022-12-08T11:35:30.209Z,15.85
2022-12-08T11:38:19.777Z,15.77
2022-12-08T11:40:50.552Z,12.80
2022-12-08T11:43:35.759Z,12.77
2022-12-08T11:46:09.897Z,12.55
2022-12-08T11:49:05.582Z,13.07
2022-12-08T11:51:59.177Z,11.68
2022-12-08T11:55:03.307Z,10.90
2022-12-08T11:57:30.729Z,13.20
2022-12-08T11:59:59.019Z,13.73
2022-12-08T12:02:30.137Z,15.00
2022-12-08T12:05:08.257Z,14.55
2022-12-08T12:07:58.498Z,21.13
2022-12-08T12:10:35.909Z,19.58
2022-12-08T12:13:25.825Z,18.50
2022-12-08T12:16:23.889Z,15.68
2022-12-08T12:18:56.240Z,15.75
2022-12-08T12:21:32.652Z,16.05
2022-12-08T12:24:02.051Z,17.05
2022-12-08T12:26:31.372Z,17.08
2022-12-08T12:29:20.297Z,17.05
2022-12-08T12:32:09.092Z,16.10
2022-12-08T12:34:44.870Z,17.88
2022-12-08T12:37:15.539Z,16.45
2022-12-08T12:39:48.891Z,15.18
2022-12-08T12:42:51.228Z,14.65
2022-12-08T12:45:18.164Z,16.33
2022-12-08T12:47:57.457Z,20.95
2022-12-08T12:50:33.843Z,15.25
2022-12-08T12:53:09.151Z,17.27
2022-12-08T12:55:54.617Z,18.05
2022-12-08T12:58:27.662Z,19.67
2022-12-08T13:01:13.104Z,17.25
2022-12-08T13:03:50.123Z,17.67
2022-12-08T13:06:33.742Z,24.40
2022-12-08T13:09:00.979Z,21.52
2022-12-08T13:11:28.084Z,22.40
2022-12-08T13:14:04.516Z,24.10
2022-12-08T13:16:39.090Z,26.98
2022-12-08T13:19:14.371Z,24.27
2022-12-08T13:21:41.833Z,27.17
2022-12-08T13:24:14.885Z,27.35
2022-12-08T13:27:04.195Z,25.33
2022-12-08T13:29:40.484Z,28.75
2022-12-08T13:32:07.428Z,27.50
2022-12-08T13:34:49.101Z,25.25
2022-12-08T13:37:25.577Z,26.85
2022-12-08T13:40:19.184Z,24.52
2022-12-08T13:43:15.359Z,27.75
2022-12-08T13:46:52.944Z,22.85
2022-12-08T13:55:59.030Z,24.52
2022-12-08T13:57:34.574Z,24.98
2022-12-08T14:00:07.634Z,27.27
2022-12-08T14:02:47.743Z,26.35
2022-12-08T14:05:34.605Z,28.17
2022-12-08T14:08:57.771Z,27.42
2022-12-08T14:11:33.849Z,27.48
2022-12-08T14:14:03.652Z,25.40
2022-12-08T14:16:41.277Z,25.08
2022-12-08T14:19:23.688Z,29.45
2022-12-08T14:21:56.602Z,31.63
2022-12-08T14:24:25.129Z,29.85
2022-12-08T14:26:55.165Z,33.25
2022-12-08T14:29:52.801Z,35.40
2022-12-08T14:32:43.021Z,34.55
2022-12-08T14:35:10.122Z,32.38
2022-12-08T14:37:48.574Z,36.08
2022-12-08T14:40:23.109Z,33.63
2022-12-08T14:43:16.823Z,39.58
2022-12-08T14:45:43.764Z,36.85
2022-12-08T14:48:33.893Z,43.17
2022-12-08T14:51:03.994Z,39.30
2022-12-08T14:53:40.025Z,41.20
2022-12-08T14:56:12.368Z,42.97
2022-12-08T14:58:39.512Z,38.83
2022-12-08T15:01:08.578Z,43.63
2022-12-08T15:03:36.713Z,39.03
2022-12-08T15:06:06.914Z,38.45
2022-12-08T15:08:35.527Z,38.67
2022-12-08T16:41:43.347Z,53.13
